KRMY

Brooks Field Airport

Marshall, Michigan, USA
METAR KRMY 212155Z AUTO 07003KT 10SM SCT100 23/13 A2982 RMK AO2 T02250134
Observed Flight Rules
Jun-21 @ 21:55 UTC (10 minutes ago) Visual Flight Rules
Wind Visibility Clouds
70° at 3 knots 10 miles
  • Scattered at 10,000' AGL
Temperatures Readings
Current 23°C / 73°F
Dewpoint 13°C / 55°F
Humidity 53%
Altimeter 29.82" Hg
Pressure 1010 hPa
Elevation 287
METAR KRMY 212155Z AUTO 07003KT 10SM SCT100 23/13 A2982 RMK AO2 T02250134
Observed Flight Rules
Jun-21 @ 21:55 UTC
(10 minutes ago)
VFR
Wind Visibility
70° at 3 knots 10 miles
Clouds
  • Scattered at 10,000' AGL
Temperature Dewpoint
23°C / 73°F 13°C / 55°F
Humidity Altimeter Pressure
53% 29.82" Hg 1010 hPa